Colden, New York
Current Conditions -  °F | °C
As of 8:54 PM on Friday 31 Oct 2014 (Local Time) from KBUF Reporting Station
Light Rain Light Rain  
Wind Chill: 39°   Ceiling: 4100
Heat Index: 43°   Visibility: 7mi
Dew Point: 40°   Wind: 6mph
Humidity: 89%   Direction: 130°SE
Pressure: 29.95"   Gusts: NA
Location:  42.64°N, 78.68°W
Report Text: KBUF 010054Z 13005KT 7SM -RA FEW015 SCT029 OVC041 06/04 A2995 RMK AO2 SLP147 P0001 T00610044
Loading
Personal Weather Stations






























Interactive Weather Map
Tropical Storm Tracking
New forecast layout! Learn more

10-Day Weather Forecast

Advertisements
Track Severe Weather on mobile